Time;durP1;ratioP1;P1;durP2;ratioP2;P2;SDS_P1;SDS_P2;PMS_P1;PMS_P2;Temp;Humidity;BMP_temperature;BMP_pressure;BME280_temperature;BME280_humidity;BME280_pressure;Samples;Min_cycle;Max_cycle;Signal;HPM_P1;HPM_P2
2021/05/01 00:01:11;;;;;;;0.50;0.50;;;8.00;99.90;;;;;;5068554;28;20214;-81
2021/05/01 00:03:37;;;;;;;0.60;0.60;;;7.90;99.90;;;;;;5068832;28;20207;-82
2021/05/01 00:06:03;;;;;;;0.60;0.60;;;7.90;99.90;;;;;;5068636;28;20292;-82
2021/05/01 00:08:29;;;;;;;0.60;0.60;;;7.90;99.90;;;;;;5068945;28;20205;-82
2021/05/01 00:10:59;;;;;;;0.57;0.57;;;7.90;99.90;;;;;;5068266;28;20203;-81
2021/05/01 00:13:26;;;;;;;0.52;0.52;;;7.90;99.90;;;;;;5069004;28;20217;-81
2021/05/01 00:15:52;;;;;;;0.50;0.50;;;7.90;99.90;;;;;;5068641;28;20223;-81
2021/05/01 00:18:18;;;;;;;0.50;0.50;;;7.80;99.90;;;;;;5068428;28;20199;-81
2021/05/01 00:20:45;;;;;;;0.60;0.60;;;7.90;99.90;;;;;;5068717;28;20199;-81
2021/05/01 00:23:11;;;;;;;0.50;0.50;;;7.80;99.90;;;;;;5068553;28;20210;-82
2021/05/01 00:25:37;;;;;;;0.60;0.60;;;7.80;99.90;;;;;;5068433;28;20196;-81
2021/05/01 00:28:04;;;;;;;0.60;0.60;;;7.80;99.90;;;;;;5068798;28;20463;-82
2021/05/01 00:30:31;;;;;;;0.55;0.55;;;7.80;99.90;;;;;;5068749;28;20298;-82
2021/05/01 00:32:57;;;;;;;0.60;0.60;;;7.80;99.90;;;;;;5068600;28;20207;-82
2021/05/01 00:35:23;;;;;;;0.60;0.60;;;7.70;99.90;;;;;;5068578;28;20716;-82
2021/05/01 00:37:50;;;;;;;0.60;0.60;;;7.70;99.90;;;;;;5068456;28;20208;-83
2021/05/01 00:40:16;;;;;;;0.50;0.50;;;7.70;99.90;;;;;;5068461;28;20208;-83
2021/05/01 00:42:42;;;;;;;0.60;0.60;;;7.60;99.90;;;;;;5068617;28;20203;-83
2021/05/01 00:45:09;;;;;;;0.60;0.60;;;7.60;99.90;;;;;;5068061;28;20654;-83
2021/05/01 00:47:36;;;;;;;0.60;0.60;;;7.60;99.90;;;;;;5068614;28;20230;-82
2021/05/01 00:50:04;;;;;;;0.50;0.50;;;7.60;99.90;;;;;;5068361;28;20253;-83
2021/05/01 00:52:31;;;;;;;0.60;0.60;;;7.60;99.90;;;;;;5068083;28;20682;-82
2021/05/01 00:54:58;;;;;;;0.60;0.60;;;7.60;99.90;;;;;;5068116;28;20231;-82
2021/05/01 00:57:25;;;;;;;0.50;0.50;;;7.60;99.90;;;;;;5070043;28;20204;-82
2021/05/01 00:59:51;;;;;;;0.60;0.60;;;7.60;99.90;;;;;;5071892;28;20203;-83
2021/05/01 01:02:21;;;;;;;0.60;0.60;;;7.60;99.90;;;;;;5071754;28;20204;-82
2021/05/01 01:04:49;;;;;;;0.60;0.60;;;7.60;99.90;;;;;;5071971;28;20231;-82
2021/05/01 01:07:15;;;;;;;0.50;0.50;;;7.50;99.90;;;;;;5071504;28;20577;-82
2021/05/01 01:09:41;;;;;;;0.60;0.60;;;7.60;99.90;;;;;;5071762;28;20277;-82
2021/05/01 01:12:08;;;;;;;0.60;0.60;;;7.50;99.90;;;;;;5071558;28;20644;-82
2021/05/01 01:14:34;;;;;;;0.60;0.60;;;7.50;99.90;;;;;;5071625;28;20685;-82
2021/05/01 01:17:00;;;;;;;0.50;0.50;;;6.90;99.90;;;;;;5071261;28;20467;-82
2021/05/01 01:19:26;;;;;;;0.60;0.60;;;8.00;99.90;;;;;;5071677;28;20222;-82
2021/05/01 01:21:53;;;;;;;0.60;0.60;;;7.50;99.90;;;;;;5071644;28;20203;-82
2021/05/01 01:24:20;;;;;;;0.60;0.60;;;7.40;99.90;;;;;;5071034;28;20203;-81
2021/05/01 01:26:46;;;;;;;0.60;0.60;;;7.40;99.90;;;;;;5071230;28;20227;-82
2021/05/01 01:29:14;;;;;;;0.60;0.60;;;7.40;99.90;;;;;;5071307;28;20712;-82
2021/05/01 01:31:41;;;;;;;0.60;0.60;;;7.40;99.90;;;;;;5071192;28;20276;-82
2021/05/01 01:34:07;;;;;;;0.60;0.60;;;7.40;99.90;;;;;;5071171;28;20250;-81
2021/05/01 01:36:33;;;;;;;0.60;0.60;;;7.40;99.90;;;;;;5071260;28;20207;-82
2021/05/01 01:39:00;;;;;;;0.57;0.57;;;7.40;99.90;;;;;;5071167;28;20215;-82
2021/05/01 01:41:27;;;;;;;0.60;0.60;;;7.40;99.90;;;;;;5070943;28;20456;-82
2021/05/01 01:43:53;;;;;;;0.50;0.50;;;7.40;99.90;;;;;;5071201;28;20203;-82
2021/05/01 01:46:19;;;;;;;0.50;0.50;;;7.40;99.90;;;;;;5071116;28;20224;-80
2021/05/01 01:48:45;;;;;;;0.60;0.60;;;7.40;99.90;;;;;;5071141;28;20269;-80
2021/05/01 01:51:12;;;;;;;0.60;0.60;;;7.30;99.90;;;;;;5070645;28;20203;-80
2021/05/01 01:53:38;;;;;;;0.60;0.60;;;7.30;99.90;;;;;;5071256;28;20731;-80
2021/05/01 01:56:04;;;;;;;0.60;0.60;;;7.30;99.90;;;;;;5070768;28;20600;-80
2021/05/01 01:58:31;;;;;;;0.60;0.60;;;7.30;99.90;;;;;;5070753;28;20701;-80
2021/05/01 02:00:57;;;;;;;0.50;0.50;;;7.30;99.90;;;;;;5070403;28;20670;-80
2021/05/01 02:03:24;;;;;;;0.60;0.60;;;7.30;99.90;;;;;;5070628;28;20874;-80
2021/05/01 02:05:50;;;;;;;0.60;0.60;;;7.30;99.90;;;;;;5070573;28;20276;-80
2021/05/01 02:08:16;;;;;;;0.60;0.60;;;7.20;99.90;;;;;;5070495;28;20218;-80
2021/05/01 02:10:43;;;;;;;0.52;0.52;;;7.20;99.90;;;;;;5070193;28;20204;-80
2021/05/01 02:13:09;;;;;;;0.60;0.60;;;7.20;99.90;;;;;;5070476;28;20519;-80
2021/05/01 02:15:36;;;;;;;0.60;0.60;;;7.20;99.90;;;;;;5070369;28;20228;-80
2021/05/01 02:18:04;;;;;;;0.60;0.60;;;7.20;99.90;;;;;;5070416;28;20230;-80
2021/05/01 02:20:33;;;;;;;0.60;0.60;;;7.20;99.90;;;;;;5070163;28;20212;-80
2021/05/01 02:23:00;;;;;;;0.60;0.60;;;7.10;99.90;;;;;;5070269;28;20211;-80
2021/05/01 02:25:27;;;;;;;0.50;0.50;;;7.10;99.90;;;;;;5069992;28;20576;-80
2021/05/01 02:27:54;;;;;;;0.60;0.60;;;7.10;99.90;;;;;;5070376;28;20199;-80
2021/05/01 02:30:22;;;;;;;0.52;0.52;;;7.10;99.90;;;;;;5070369;28;20214;-80
2021/05/01 02:32:49;;;;;;;0.50;0.50;;;7.10;99.90;;;;;;5070161;28;20697;-80
2021/05/01 02:35:17;;;;;;;0.50;0.50;;;7.10;99.90;;;;;;5069672;28;20220;-80
2021/05/01 02:37:44;;;;;;;0.60;0.60;;;7.00;99.90;;;;;;5070059;28;20203;-80
2021/05/01 02:40:12;;;;;;;0.57;0.57;;;7.10;99.90;;;;;;5070018;28;20654;-80
2021/05/01 02:42:39;;;;;;;0.57;0.57;;;7.00;99.90;;;;;;5069949;28;20204;-80
2021/05/01 02:45:06;;;;;;;0.60;0.60;;;7.00;99.90;;;;;;5069864;28;20253;-80
2021/05/01 02:47:33;;;;;;;0.50;0.50;;;7.00;99.90;;;;;;5069873;28;20208;-81
2021/05/01 02:50:00;;;;;;;0.60;0.60;;;6.90;99.90;;;;;;5069388;28;20204;-80
2021/05/01 02:52:26;;;;;;;0.60;0.60;;;6.90;99.90;;;;;;5069798;28;20680;-80
2021/05/01 02:54:52;;;;;;;0.60;0.60;;;6.80;99.90;;;;;;5069657;28;20223;-80
2021/05/01 02:57:19;;;;;;;0.60;0.60;;;6.80;99.90;;;;;;5069879;28;20215;-81
2021/05/01 02:59:45;;;;;;;0.60;0.60;;;6.80;99.90;;;;;;5069382;28;20256;-80
2021/05/01 03:02:11;;;;;;;0.60;0.60;;;6.80;99.90;;;;;;5069662;28;20203;-80
2021/05/01 03:04:37;;;;;;;0.60;0.60;;;6.80;99.90;;;;;;5069441;28;20227;-80
2021/05/01 03:07:04;;;;;;;0.60;0.60;;;6.70;99.90;;;;;;5069399;28;20203;-80
2021/05/01 03:09:30;;;;;;;0.50;0.50;;;6.70;99.90;;;;;;5069403;28;20236;-80
2021/05/01 03:11:57;;;;;;;0.60;0.60;;;6.60;99.90;;;;;;5069423;28;20219;-80
2021/05/01 03:14:25;;;;;;;0.50;0.50;;;6.60;99.90;;;;;;5069234;28;20230;-80
2021/05/01 03:16:51;;;;;;;0.60;0.60;;;6.60;99.90;;;;;;5069378;28;20295;-80
2021/05/01 03:19:17;;;;;;;0.60;0.60;;;6.60;99.90;;;;;;5068841;28;20200;-80
2021/05/01 03:21:43;;;;;;;0.60;0.60;;;6.50;99.90;;;;;;5069350;28;20682;-80
2021/05/01 03:24:11;;;;;;;0.50;0.50;;;6.40;99.90;;;;;;5068819;28;20215;-80
2021/05/01 03:26:38;;;;;;;0.50;0.50;;;6.40;99.90;;;;;;5069414;28;20594;-80
2021/05/01 03:29:04;;;;;;;0.60;0.60;;;6.20;99.90;;;;;;5069181;28;20204;-80
2021/05/01 03:31:30;;;;;;;0.60;0.60;;;6.30;99.90;;;;;;5069137;28;20701;-80
2021/05/01 03:33:56;;;;;;;0.50;0.50;;;6.20;99.90;;;;;;5068875;28;20207;-80
2021/05/01 03:36:22;;;;;;;0.60;0.60;;;6.20;99.90;;;;;;5068881;28;20281;-80
2021/05/01 03:38:48;;;;;;;0.60;0.60;;;6.20;99.90;;;;;;5069066;28;20700;-80
2021/05/01 03:41:15;;;;;;;0.60;0.60;;;6.20;99.90;;;;;;5068952;28;20211;-80
2021/05/01 03:43:41;;;;;;;0.60;0.60;;;6.10;99.90;;;;;;5068780;28;20665;-80
2021/05/01 03:46:07;;;;;;;0.50;0.50;;;6.10;99.90;;;;;;5069079;28;20203;-80
2021/05/01 03:48:33;;;;;;;0.60;0.60;;;6.00;99.90;;;;;;5068955;28;20203;-80
2021/05/01 03:51:00;;;;;;;0.60;0.60;;;6.10;99.90;;;;;;5068989;28;20257;-80
2021/05/01 03:53:26;;;;;;;0.60;0.60;;;6.00;99.90;;;;;;5068471;28;20203;-80
2021/05/01 03:55:52;;;;;;;0.60;0.60;;;6.00;99.90;;;;;;5069180;28;20224;-80
2021/05/01 03:58:19;;;;;;;0.60;0.60;;;6.00;99.90;;;;;;5068836;28;20199;-80
2021/05/01 04:00:45;;;;;;;0.60;0.60;;;5.90;99.90;;;;;;5069066;28;20204;-80
2021/05/01 04:03:11;;;;;;;0.60;0.60;;;5.80;99.90;;;;;;5068407;28;20646;-80
2021/05/01 04:05:37;;;;;;;0.60;0.60;;;5.90;99.90;;;;;;5068696;28;20500;-80
2021/05/01 04:08:04;;;;;;;0.55;0.55;;;5.80;99.90;;;;;;5068640;28;20207;-80
2021/05/01 04:10:30;;;;;;;0.50;0.50;;;5.90;99.90;;;;;;5068485;28;20203;-80
2021/05/01 04:12:56;;;;;;;0.60;0.60;;;5.90;99.90;;;;;;5068648;28;20211;-80
2021/05/01 04:15:23;;;;;;;0.60;0.60;;;5.80;99.90;;;;;;5068514;28;20317;-81
2021/05/01 04:17:50;;;;;;;0.60;0.60;;;5.80;99.90;;;;;;5068937;28;20210;-81
2021/05/01 04:20:16;;;;;;;0.60;0.60;;;5.90;99.90;;;;;;5068484;28;20214;-80
2021/05/01 04:22:42;;;;;;;0.50;0.50;;;5.90;99.90;;;;;;5068775;28;20658;-81
2021/05/01 04:25:09;;;;;;;0.60;0.60;;;5.80;99.90;;;;;;5068522;28;20245;-80
2021/05/01 04:27:35;;;;;;;0.60;0.60;;;5.80;99.90;;;;;;5068561;28;20231;-80
2021/05/01 04:30:02;;;;;;;0.60;0.60;;;5.80;99.90;;;;;;5068282;28;20214;-81
2021/05/01 04:32:30;;;;;;;0.60;0.60;;;5.80;99.90;;;;;;5070486;28;20208;-81
2021/05/01 04:34:56;;;;;;;0.60;0.60;;;5.80;99.90;;;;;;5072264;28;20216;-80
2021/05/01 04:37:22;;;;;;;0.60;0.60;;;5.80;99.90;;;;;;5071950;28;20207;-81
2021/05/01 04:39:49;;;;;;;0.50;0.50;;;5.80;99.90;;;;;;5072169;28;20599;-80
2021/05/01 04:42:15;;;;;;;0.60;0.60;;;5.90;99.90;;;;;;5072438;28;20207;-80
2021/05/01 04:44:41;;;;;;;0.55;0.55;;;5.80;99.90;;;;;;5072267;28;20635;-80
2021/05/01 04:47:08;;;;;;;0.60;0.60;;;5.90;99.90;;;;;;5071821;28;20661;-80
2021/05/01 04:49:35;;;;;;;0.60;0.60;;;5.70;99.90;;;;;;5072275;28;20204;-80
2021/05/01 04:52:01;;;;;;;0.50;0.50;;;5.70;99.90;;;;;;5072313;28;20258;-80
2021/05/01 04:54:27;;;;;;;0.60;0.60;;;5.80;99.90;;;;;;5071599;28;20581;-81
2021/05/01 04:56:54;;;;;;;0.52;0.52;;;5.70;99.90;;;;;;5071940;28;20504;-80
2021/05/01 04:59:20;;;;;;;0.60;0.60;;;5.90;99.90;;;;;;5071896;28;20203;-80
2021/05/01 05:01:46;;;;;;;0.60;0.60;;;6.00;99.90;;;;;;5072199;28;20208;-80
2021/05/01 05:04:12;;;;;;;0.60;0.60;;;5.90;99.90;;;;;;5071386;28;20215;-80
2021/05/01 05:06:39;;;;;;;0.50;0.50;;;6.00;99.90;;;;;;5071894;28;20223;-80
2021/05/01 05:09:06;;;;;;;0.60;0.60;;;5.80;99.90;;;;;;5071686;28;20212;-80
2021/05/01 05:11:32;;;;;;;0.60;0.60;;;5.80;99.90;;;;;;5071776;28;20210;-80
2021/05/01 05:13:59;;;;;;;0.50;0.50;;;5.50;99.90;;;;;;5071512;28;20207;-80
2021/05/01 05:16:26;;;;;;;0.60;0.60;;;5.90;99.90;;;;;;5071489;28;20289;-80
2021/05/01 05:18:52;;;;;;;0.60;0.60;;;5.90;99.90;;;;;;5071658;28;20613;-80
2021/05/01 05:21:18;;;;;;;0.60;0.60;;;6.00;99.90;;;;;;5071581;28;20199;-80
2021/05/01 05:23:46;;;;;;;0.50;0.50;;;6.10;99.90;;;;;;5071240;28;20234;-81
2021/05/01 05:26:12;;;;;;;0.60;0.60;;;6.00;99.90;;;;;;5071434;28;20345;-80
2021/05/01 05:28:38;;;;;;;0.60;0.60;;;6.00;99.90;;;;;;5071652;28;20310;-81
2021/05/01 05:31:04;;;;;;;0.60;0.60;;;6.00;99.90;;;;;;5070919;28;20203;-80
2021/05/01 05:33:31;;;;;;;0.50;0.50;;;6.10;99.90;;;;;;5071280;28;20203;-80
2021/05/01 05:35:57;;;;;;;0.60;0.60;;;6.10;99.90;;;;;;5071280;28;20228;-81
2021/05/01 05:38:23;;;;;;;0.60;0.60;;;6.30;99.90;;;;;;5071204;28;20630;-80
2021/05/01 05:40:51;;;;;;;0.60;0.60;;;6.40;99.90;;;;;;5070905;28;20273;-84
2021/05/01 05:43:17;;;;;;;0.60;0.60;;;6.60;99.90;;;;;;5071024;28;20199;-82
2021/05/01 05:45:45;;;;;;;0.50;0.50;;;7.00;99.90;;;;;;5071082;28;20216;-81
2021/05/01 05:48:12;;;;;;;0.60;0.60;;;7.00;99.90;;;;;;5071021;28;20230;-81
2021/05/01 05:50:38;;;;;;;0.60;0.60;;;7.10;99.90;;;;;;5070919;28;20211;-81
2021/05/01 05:53:04;;;;;;;0.50;0.50;;;7.10;99.90;;;;;;5070958;28;20217;-80
2021/05/01 05:55:30;;;;;;;0.50;0.50;;;7.20;99.90;;;;;;5070338;28;20409;-80
2021/05/01 05:57:57;;;;;;;0.60;0.60;;;7.10;99.90;;;;;;5070875;28;20200;-81
2021/05/01 06:00:25;;;;;;;0.60;0.60;;;7.20;99.90;;;;;;5070870;28;20203;-81
2021/05/01 06:02:53;;;;;;;0.60;0.60;;;7.40;99.90;;;;;;5070643;28;20207;-81
2021/05/01 06:05:22;;;;;;;0.50;0.50;;;7.50;99.90;;;;;;5070905;28;20223;-83
2021/05/01 06:07:51;;;;;;;0.50;0.50;;;7.70;99.90;;;;;;5069164;28;20206;-83
2021/05/01 06:10:17;;;;;;;0.60;0.60;;;7.60;99.90;;;;;;5070614;28;20215;-83
2021/05/01 06:12:45;;;;;;;0.50;0.50;;;7.40;99.90;;;;;;5070629;28;20273;-82
2021/05/01 06:15:14;;;;;;;0.60;0.60;;;7.60;99.90;;;;;;5070568;28;20689;-82
2021/05/01 06:17:41;;;;;;;0.55;0.55;;;7.90;99.90;;;;;;5070719;28;20204;-83
2021/05/01 06:20:08;;;;;;;0.50;0.50;;;7.80;99.90;;;;;;5070544;28;20207;-83
2021/05/01 06:22:35;;;;;;;0.50;0.50;;;7.80;99.90;;;;;;5070328;28;20208;-83
2021/05/01 06:25:06;;;;;;;0.60;0.60;;;7.90;99.90;;;;;;5069038;28;20192;-84
2021/05/01 06:27:32;;;;;;;0.60;0.60;;;8.00;99.90;;;;;;5069372;28;20568;-82
2021/05/01 06:29:58;;;;;;;0.60;0.60;;;7.80;99.90;;;;;;5067143;28;20199;-83
2021/05/01 06:32:25;;;;;;;0.60;0.60;;;7.90;99.90;;;;;;5070278;28;20200;-83
2021/05/01 06:34:54;;;;;;;0.60;0.60;;;7.70;99.90;;;;;;5070204;28;20211;-83
2021/05/01 06:37:21;;;;;;;0.55;0.55;;;7.70;99.90;;;;;;5070440;28;20203;-83
2021/05/01 06:39:49;;;;;;;0.60;0.60;;;7.70;99.90;;;;;;5070436;28;20208;-82
2021/05/01 06:42:19;;;;;;;0.60;0.60;;;7.90;99.90;;;;;;5070161;28;20295;-82
2021/05/01 06:44:51;;;;;;;0.60;0.60;;;7.90;99.90;;;;;;5070109;28;20211;-82
2021/05/01 06:47:24;;;;;;;0.60;0.60;;;8.00;99.90;;;;;;5070191;28;20288;-83
2021/05/01 06:50:03;;;;;;;0.60;0.60;;;8.00;99.90;;;;;;5070318;28;20666;-83
2021/05/01 06:52:31;;;;;;;0.50;0.50;;;8.10;99.90;;;;;;5070147;28;20206;-81
2021/05/01 06:55:02;;;;;;;0.60;0.60;;;8.20;99.90;;;;;;5068859;28;20230;-82
2021/05/01 06:57:29;;;;;;;0.60;0.60;;;8.20;99.90;;;;;;5069641;28;20577;-82
2021/05/01 06:59:57;;;;;;;0.60;0.60;;;8.30;99.90;;;;;;5067977;28;20200;-82
2021/05/01 07:02:25;;;;;;;0.60;0.60;;;8.40;99.90;;;;;;5069849;28;20803;-82
2021/05/01 07:04:52;;;;;;;0.60;0.60;;;8.40;99.90;;;;;;5069844;28;20599;-81
2021/05/01 07:07:21;;;;;;;0.60;0.60;;;8.40;99.90;;;;;;5069592;28;20207;-81
2021/05/01 07:09:47;;;;;;;0.60;0.60;;;8.10;99.90;;;;;;5069767;28;20294;-82
2021/05/01 07:12:13;;;;;;;0.60;0.60;;;8.50;99.90;;;;;;5069536;28;20204;-82
2021/05/01 07:14:41;;;;;;;0.60;0.60;;;8.50;99.90;;;;;;5069636;28;20191;-82
2021/05/01 07:17:07;;;;;;;0.55;0.55;;;8.70;99.90;;;;;;5069769;28;20688;-83
2021/05/01 07:19:34;;;;;;;0.50;0.50;;;8.70;99.90;;;;;;5069625;28;20207;-82
2021/05/01 07:22:02;;;;;;;0.60;0.60;;;8.80;99.90;;;;;;5069472;28;20203;-82
2021/05/01 07:24:29;;;;;;;0.60;0.60;;;8.80;99.90;;;;;;5069476;28;20210;-82
2021/05/01 07:26:57;;;;;;;0.60;0.60;;;9.10;99.90;;;;;;5069598;28;20219;-82
2021/05/01 07:29:24;;;;;;;0.60;0.60;;;9.10;99.90;;;;;;5069562;28;20208;-82
2021/05/01 07:31:55;;;;;;;0.60;0.60;;;9.20;99.90;;;;;;5069642;28;20204;-83
2021/05/01 07:34:22;;;;;;;0.60;0.60;;;9.40;99.90;;;;;;5069387;28;20286;-83
2021/05/01 07:36:52;;;;;;;0.60;0.60;;;9.40;99.90;;;;;;5069309;28;20228;-82
2021/05/01 07:39:20;;;;;;;0.60;0.60;;;9.50;99.90;;;;;;5069139;28;20225;-82
2021/05/01 07:41:55;;;;;;;0.50;0.50;;;9.30;99.90;;;;;;5069300;28;20277;-82
2021/05/01 07:44:24;;;;;;;0.60;0.60;;;9.40;99.90;;;;;;5069427;28;20203;-82
2021/05/01 07:46:51;;;;;;;0.50;0.50;;;9.50;99.90;;;;;;5069344;28;20295;-82
2021/05/01 07:49:17;;;;;;;0.60;0.60;;;9.60;99.90;;;;;;5069105;28;20207;-83
2021/05/01 07:51:44;;;;;;;0.57;0.57;;;9.60;99.90;;;;;;5069233;28;20735;-82
2021/05/01 07:54:10;;;;;;;0.60;0.60;;;9.80;99.90;;;;;;5069272;28;20200;-82
2021/05/01 07:56:36;;;;;;;0.60;0.60;;;10.70;99.90;;;;;;5068950;28;20260;-82
2021/05/01 07:59:04;;;;;;;0.60;0.60;;;9.70;99.90;;;;;;5069208;28;20617;-82
2021/05/01 08:01:30;;;;;;;0.60;0.60;;;9.90;99.90;;;;;;5069287;28;20206;-82
2021/05/01 08:03:56;;;;;;;0.60;0.60;;;9.90;99.90;;;;;;5069403;28;20211;-82
2021/05/01 08:06:23;;;;;;;0.60;0.60;;;9.90;99.90;;;;;;5070433;28;20377;-82
2021/05/01 08:08:49;;;;;;;0.55;0.55;;;9.90;99.90;;;;;;5073107;28;20622;-82
2021/05/01 08:11:16;;;;;;;0.60;0.60;;;9.90;99.90;;;;;;5072811;28;20257;-82
2021/05/01 08:13:42;;;;;;;0.60;0.60;;;10.00;99.90;;;;;;5072710;28;20560;-82
2021/05/01 08:16:09;;;;;;;0.60;0.60;;;10.00;99.90;;;;;;5073114;28;20226;-82
2021/05/01 08:18:36;;;;;;;0.50;0.50;;;10.10;99.90;;;;;;5072982;28;20207;-82
2021/05/01 08:21:02;;;;;;;0.60;0.60;;;10.20;99.90;;;;;;5072868;28;20529;-83
2021/05/01 08:23:32;;;;;;;0.60;0.60;;;10.20;99.90;;;;;;5072967;28;20505;-83
2021/05/01 08:25:58;;;;;;;0.50;0.50;;;10.20;99.90;;;;;;5073041;28;20310;-82
2021/05/01 08:28:24;;;;;;;0.60;0.60;;;10.30;99.90;;;;;;5073365;28;20253;-82
2021/05/01 08:30:51;;;;;;;0.60;0.60;;;10.30;99.90;;;;;;5073412;28;20218;-83
2021/05/01 08:33:18;;;;;;;0.60;0.60;;;10.40;99.90;;;;;;5073269;28;20206;-81
2021/05/01 08:35:44;;;;;;;0.60;0.60;;;10.50;99.90;;;;;;5073852;28;20220;-82
2021/05/01 08:38:10;;;;;;;0.60;0.60;;;10.50;99.90;;;;;;5072503;28;20208;-81
2021/05/01 08:40:37;;;;;;;0.60;0.60;;;10.80;99.90;;;;;;5072675;28;20204;-84
2021/05/01 08:43:03;;;;;;;0.60;0.60;;;10.60;99.90;;;;;;5073233;28;20211;-83
2021/05/01 08:45:31;;;;;;;0.60;0.60;;;10.70;99.90;;;;;;5072556;28;20200;-85
2021/05/01 08:48:00;;;;;;;0.60;0.60;;;10.80;99.90;;;;;;5073382;28;20293;-82
2021/05/01 08:50:41;;;;;;;0.60;0.60;;;10.70;99.90;;;;;;5072596;28;20204;-81
2021/05/01 08:53:08;;;;;;;0.50;0.50;;;10.70;99.90;;;;;;5072490;28;20237;-81
2021/05/01 08:55:39;;;;;;;0.60;0.60;;;10.80;99.90;;;;;;5072392;28;20250;-83
2021/05/01 08:58:07;;;;;;;0.60;0.60;;;10.80;99.90;;;;;;5073272;28;20211;-84
2021/05/01 09:00:35;;;;;;;0.50;0.50;;;10.90;99.90;;;;;;5074440;28;20291;-85
2021/05/01 09:03:05;;;;;;;0.60;0.60;;;11.10;99.90;;;;;;5072600;28;20207;-86
2021/05/01 09:05:31;;;;;;;0.60;0.60;;;11.30;99.90;;;;;;5072591;28;20231;-86
2021/05/01 09:07:59;;;;;;;0.50;0.50;;;11.40;99.90;;;;;;5072657;28;20199;-83
2021/05/01 09:10:25;;;;;;;0.57;0.57;;;11.40;99.90;;;;;;5072113;28;20208;-83
2021/05/01 09:12:52;;;;;;;0.60;0.60;;;11.40;99.90;;;;;;5073048;28;20203;-83
2021/05/01 09:15:20;;;;;;;0.60;0.60;;;11.50;99.90;;;;;;5072113;28;20223;-82
2021/05/01 09:17:58;;;;;;;0.60;0.60;;;11.70;99.90;;;;;;5070970;28;20233;-81
2021/05/01 09:20:26;;;;;;;0.60;0.60;;;11.60;99.90;;;;;;5074813;28;20293;-83
2021/05/01 09:22:56;;;;;;;0.50;0.50;;;11.60;99.90;;;;;;5074396;28;20222;-81
2021/05/01 09:25:25;;;;;;;0.60;0.60;;;11.70;99.90;;;;;;5071943;28;20413;-81
2021/05/01 09:28:02;;;;;;;0.60;0.60;;;11.80;99.90;;;;;;5071699;28;20218;-82
2021/05/01 09:30:29;;;;;;;0.60;0.60;;;11.90;99.90;;;;;;5071745;28;20208;-82
2021/05/01 09:33:18;;;;;;;0.60;0.60;;;11.70;99.90;;;;;;5071754;28;20204;-81
2021/05/01 09:35:45;;;;;;;0.60;0.60;;;11.70;99.90;;;;;;5071410;28;20219;-82
2021/05/01 09:38:13;;;;;;;0.52;0.52;;;11.70;99.90;;;;;;5071591;28;20261;-82
2021/05/01 09:40:45;;;;;;;0.60;0.60;;;11.70;99.90;;;;;;5071470;28;20230;-82
2021/05/01 09:43:13;;;;;;;0.60;0.60;;;11.80;99.90;;;;;;5071674;28;20204;-81
2021/05/01 09:45:40;;;;;;;0.60;0.60;;;11.90;99.90;;;;;;5071519;28;20249;-82
2021/05/01 09:48:17;;;;;;;0.60;0.60;;;11.80;99.90;;;;;;5071659;28;20230;-82
2021/05/01 09:50:44;;;;;;;0.50;0.50;;;11.70;99.90;;;;;;5071370;28;20207;-82
2021/05/01 09:53:14;;;;;;;0.50;0.50;;;11.80;99.90;;;;;;5071084;28;20277;-82
2021/05/01 09:55:50;;;;;;;0.60;0.60;;;12.00;99.90;;;;;;5071461;28;20235;-82
2021/05/01 09:58:21;;;;;;;0.60;0.60;;;12.00;99.90;;;;;;5071331;28;20210;-82
2021/05/01 10:00:49;;;;;;;0.60;0.60;;;12.00;99.90;;;;;;5071123;28;20200;-82
2021/05/01 10:03:24;;;;;;;0.50;0.50;;;12.00;99.90;;;;;;5071670;28;20590;-82
2021/05/01 10:05:51;;;;;;;0.60;0.60;;;11.90;99.90;;;;;;5070695;28;20604;-81
2021/05/01 10:08:20;;;;;;;0.60;0.60;;;11.90;99.90;;;;;;5072745;28;20203;-81
2021/05/01 10:10:50;;;;;;;0.60;0.60;;;11.90;99.90;;;;;;5071093;28;20204;-82
2021/05/01 10:13:19;;;;;;;0.60;0.60;;;11.90;99.90;;;;;;5070679;28;20685;-81
2021/05/01 10:15:45;;;;;;;0.60;0.60;;;11.80;99.90;;;;;;5070462;28;20223;-81
2021/05/01 10:18:13;;;;;;;0.60;0.60;;;11.80;99.90;;;;;;5070407;28;20196;-80
2021/05/01 10:20:42;;;;;;;0.50;0.50;;;11.90;99.90;;;;;;5070965;28;20204;-81
2021/05/01 10:23:09;;;;;;;0.60;0.60;;;11.90;99.90;;;;;;5070993;28;20272;-80
2021/05/01 10:25:35;;;;;;;0.60;0.60;;;11.90;99.90;;;;;;5070504;28;20412;-81
2021/05/01 10:28:04;;;;;;;0.60;0.60;;;11.90;99.90;;;;;;5070744;28;20208;-79
2021/05/01 10:30:33;;;;;;;0.60;0.60;;;11.80;99.90;;;;;;5069692;28;20294;-80
2021/05/01 10:33:10;;;;;;;0.60;0.60;;;12.00;99.90;;;;;;5070749;28;20857;-81
2021/05/01 10:35:37;;;;;;;0.60;0.60;;;12.20;99.90;;;;;;5070425;28;20227;-81
2021/05/01 10:38:06;;;;;;;0.60;0.60;;;12.70;99.90;;;;;;5070570;28;20298;-80
2021/05/01 10:40:47;;;;;;;0.60;0.60;;;12.80;99.90;;;;;;5070463;28;20617;-80
2021/05/01 10:43:16;;;;;;;0.60;0.60;;;12.60;99.90;;;;;;5070529;28;20511;-80
2021/05/01 10:45:57;;;;;;;0.60;0.60;;;12.90;99.90;;;;;;5070353;28;20204;-79
2021/05/01 10:48:24;;;;;;;0.60;0.60;;;13.30;99.90;;;;;;5070542;28;20207;-80
2021/05/01 10:51:06;;;;;;;0.60;0.60;;;13.60;99.90;;;;;;5070423;28;20203;-80
2021/05/01 10:53:32;;;;;;;0.60;0.60;;;13.70;99.90;;;;;;5070024;28;20696;-80
2021/05/01 10:55:59;;;;;;;0.60;0.60;;;14.10;99.90;;;;;;5070073;28;20219;-80
2021/05/01 10:58:35;;;;;;;0.60;0.60;;;14.20;99.90;;;;;;5070206;28;20283;-81
2021/05/01 11:01:02;;;;;;;0.60;0.60;;;14.30;99.90;;;;;;5069201;28;20207;-80
2021/05/01 11:03:29;;;;;;;0.50;0.50;;;14.10;99.90;;;;;;5065773;28;20256;-80
2021/05/01 11:05:59;;;;;;;0.60;0.60;;;13.90;99.90;;;;;;5068416;28;20251;-81
2021/05/01 11:08:32;;;;;;;0.60;0.60;;;13.40;99.90;;;;;;5068725;28;20200;-81
2021/05/01 11:10:59;;;;;;;0.60;0.60;;;13.00;99.90;;;;;;5039628;28;20203;-80
2021/05/01 11:13:27;;;;;;;0.60;0.60;;;12.90;99.90;;;;;;5064938;28;20207;-80
2021/05/01 11:15:58;;;;;;;0.60;0.60;;;12.90;99.90;;;;;;5067687;28;20627;-79
2021/05/01 11:18:26;;;;;;;0.50;0.50;;;12.90;99.90;;;;;;5067743;28;20261;-83
2021/05/01 11:20:57;;;;;;;0.57;0.57;;;12.90;99.90;;;;;;5069271;28;20203;-82
2021/05/01 11:23:26;;;;;;;0.60;0.60;;;12.80;99.90;;;;;;5068536;28;20215;-81
2021/05/01 11:25:54;;;;;;;0.60;0.60;;;12.70;99.90;;;;;;5067762;28;20226;-82
2021/05/01 11:28:23;;;;;;;0.60;0.60;;;12.70;99.90;;;;;;5068008;28;20727;-82
2021/05/01 11:30:54;;;;;;;0.50;0.50;;;12.40;99.90;;;;;;5068619;28;20250;-82
2021/05/01 11:33:22;;;;;;;0.60;0.60;;;12.40;99.90;;;;;;5069141;28;20210;-82
2021/05/01 11:35:50;;;;;;;0.60;0.60;;;12.20;99.90;;;;;;5068564;28;20231;-82
2021/05/01 11:38:27;;;;;;;0.55;0.55;;;12.20;99.90;;;;;;5060180;28;20211;-79
2021/05/01 11:40:55;;;;;;;0.60;0.60;;;12.30;99.90;;;;;;5062563;28;20666;-81
2021/05/01 11:43:30;;;;;;;0.55;0.55;;;12.50;99.90;;;;;;5066891;28;20678;-81
2021/05/01 11:46:10;;;;;;;0.60;0.60;;;12.40;99.90;;;;;;5068142;28;20206;-81
2021/05/01 11:48:47;;;;;;;0.60;0.60;;;12.60;99.90;;;;;;5062590;28;20726;-81
2021/05/01 11:51:17;;;;;;;0.60;0.60;;;12.70;99.90;;;;;;5068963;28;20225;-81
2021/05/01 11:53:48;;;;;;;0.60;0.60;;;12.90;99.90;;;;;;5068750;28;20253;-81
2021/05/01 11:56:21;;;;;;;0.50;0.50;;;13.20;99.90;;;;;;5064402;28;20228;-81
2021/05/01 11:58:49;;;;;;;0.60;0.60;;;13.40;99.90;;;;;;5061164;28;20196;-82
2021/05/01 12:01:18;;;;;;;0.60;0.60;;;13.50;99.90;;;;;;5066750;28;20717;-82
2021/05/01 12:03:56;;;;;;;0.60;0.60;;;13.30;99.90;;;;;;5069093;28;20207;-82
2021/05/01 12:06:38;;;;;;;0.60;0.60;;;13.30;99.90;;;;;;5068483;28;20728;-81
2021/05/01 12:09:06;;;;;;;0.60;0.60;;;12.90;99.90;;;;;;5068614;28;20203;-81
2021/05/01 12:11:35;;;;;;;0.55;0.55;;;12.80;99.90;;;;;;5067820;28;20207;-82
2021/05/01 12:14:08;;;;;;;0.60;0.60;;;12.80;99.90;;;;;;5068576;28;20204;-82
2021/05/01 12:16:35;;;;;;;0.60;0.60;;;12.90;99.90;;;;;;5068589;28;20224;-81
2021/05/01 12:19:03;;;;;;;0.60;0.60;;;12.80;99.90;;;;;;5068909;28;20261;-90
2021/05/01 12:21:32;;;;;;;0.60;0.60;;;12.90;99.90;;;;;;5068324;28;20273;-82
2021/05/01 12:23:59;;;;;;;0.60;0.60;;;12.80;99.90;;;;;;5068530;28;20254;-86
2021/05/01 12:26:40;;;;;;;0.60;0.60;;;12.70;99.90;;;;;;5068134;28;20706;-82
2021/05/01 12:29:27;;;;;;;0.60;0.60;;;12.60;99.90;;;;;;5066165;28;20658;-82
2021/05/01 12:31:54;;;;;;;0.60;0.60;;;12.60;99.90;;;;;;5068469;28;20219;-82
2021/05/01 12:34:22;;;;;;;0.60;0.60;;;12.40;99.90;;;;;;5068692;28;20200;-82
2021/05/01 12:36:50;;;;;;;0.55;0.55;;;12.50;99.90;;;;;;5068124;28;20830;-81
2021/05/01 12:39:17;;;;;;;0.60;0.60;;;12.00;99.90;;;;;;5068789;28;20658;-81
2021/05/01 12:41:46;;;;;;;0.60;0.60;;;12.20;99.90;;;;;;5067905;28;20292;-82
2021/05/01 12:44:31;;;;;;;0.60;0.60;;;12.10;99.90;;;;;;5068449;28;20196;-81
2021/05/01 12:46:57;;;;;;;0.50;0.50;;;12.00;99.90;;;;;;5068675;28;20204;-80
2021/05/01 12:49:27;;;;;;;0.60;0.60;;;12.10;99.90;;;;;;5068510;28;20200;-81
2021/05/01 12:52:02;;;;;;;0.60;0.60;;;12.30;99.90;;;;;;5068075;28;20314;-81
2021/05/01 12:54:47;;;;;;;0.60;0.60;;;13.20;99.90;;;;;;5071692;28;20203;-81
2021/05/01 12:57:14;;;;;;;0.60;0.60;;;13.90;99.90;;;;;;5071851;28;20215;-83